Time;durP1;ratioP1;P1;durP2;ratioP2;P2;SDS_P1;SDS_P2;PMS_P1;PMS_P2;Temp;Humidity;BMP_temperature;BMP_pressure;BME280_temperature;BME280_humidity;BME280_pressure;Samples;Min_cycle;Max_cycle;Signal;HPM_P1;HPM_P2
2022/06/12 00:02:18;;;;;;;13.07;3.50;;;;;;;16.09;100.00;102205.13;5029210;28;20034;-70
2022/06/12 00:04:43;;;;;;;12.18;2.50;;;;;;;16.08;100.00;102205.09;5028707;28;20032;-70
2022/06/12 00:07:09;;;;;;;14.98;3.30;;;;;;;16.06;100.00;102205.06;5021532;28;20129;-70
2022/06/12 00:09:34;;;;;;;19.90;3.25;;;;;;;16.09;100.00;102196.25;5039038;28;20098;-69
2022/06/12 00:12:00;;;;;;;19.45;2.92;;;;;;;16.00;100.00;102197.88;5038803;28;20048;-69
2022/06/12 00:14:25;;;;;;;15.48;3.10;;;;;;;15.97;100.00;102204.94;5031614;28;20086;-70
2022/06/12 00:16:52;;;;;;;13.75;2.58;;;;;;;15.92;100.00;102198.66;5030083;28;20087;-70
2022/06/12 00:19:18;;;;;;;21.58;3.13;;;;;;;15.85;100.00;102190.56;5027633;28;20071;-70
2022/06/12 00:21:43;;;;;;;10.85;2.40;;;;;;;15.85;100.00;102195.88;5028893;28;20435;-70
2022/06/12 00:24:14;;;;;;;15.98;2.47;;;;;;;15.85;100.00;102195.00;5021679;28;20026;-71
2022/06/12 00:26:45;;;;;;;20.15;3.13;;;;;;;15.89;100.00;102193.28;5030309;28;20033;-69
2022/06/12 00:29:13;;;;;;;14.57;2.97;;;;;;;15.90;100.00;102195.06;5027677;28;20029;-70
2022/06/12 00:31:42;;;;;;;21.35;3.58;;;;;;;15.92;100.00;102198.66;5029883;28;20025;-70
2022/06/12 00:34:09;;;;;;;21.75;3.60;;;;;;;15.85;100.00;102198.53;5023087;28;20397;-70
2022/06/12 00:36:34;;;;;;;17.42;3.20;;;;;;;15.83;100.00;102200.28;5026695;28;20032;-70
2022/06/12 00:39:01;;;;;;;19.48;2.88;;;;;;;15.79;100.00;102194.84;5029673;28;20021;-69
2022/06/12 00:41:27;;;;;;;18.35;2.92;;;;;;;15.75;100.00;102191.25;5033065;28;20127;-70
2022/06/12 00:43:52;;;;;;;18.42;2.83;;;;;;;15.73;100.00;102192.97;5030232;28;20088;-70
2022/06/12 00:46:57;;;;;;;15.38;3.05;;;;;;;15.63;100.00;102186.63;5021032;28;20028;-70
2022/06/12 00:49:33;;;;;;;15.20;2.50;;;;;;;15.57;100.00;102185.63;4991678;28;20041;-70
2022/06/12 00:52:29;;;;;;;21.77;3.40;;;;;;;15.49;100.00;102183.75;5016148;28;20498;-70
2022/06/12 00:54:59;;;;;;;18.50;4.55;;;;;;;15.48;100.00;102189.03;5024837;28;20042;-69
2022/06/12 00:57:26;;;;;;;19.38;2.95;;;;;;;15.41;100.00;102195.97;5020121;28;20054;-70
2022/06/12 00:59:56;;;;;;;16.70;3.13;;;;;;;15.40;100.00;102194.19;5016409;28;20124;-70
2022/06/12 01:02:25;;;;;;;19.52;3.38;;;;;;;15.40;100.00;102195.97;5022700;28;20064;-70
2022/06/12 01:07:40;;;;;;;22.80;3.40;;;;;;;15.49;100.00;102196.09;5030614;28;20041;-69
2022/06/12 01:10:10;;;;;;;17.27;3.00;;;;;;;15.45;100.00;102197.81;5035506;28;20029;-68
2022/06/12 01:12:43;;;;;;;18.92;3.30;;;;;;;15.44;100.00;102193.38;5034428;28;20091;-70
2022/06/12 01:15:35;;;;;;;21.73;3.90;;;;;;;15.37;100.00;102188.84;5028664;28;20026;-70
2022/06/12 01:18:03;;;;;;;21.13;3.08;;;;;;;15.36;100.00;102188.81;5023500;28;20454;-69
2022/06/12 01:20:37;;;;;;;21.83;3.80;;;;;;;15.30;100.00;102184.25;5023772;28;20037;-70
2022/06/12 01:23:42;;;;;;;22.33;3.78;;;;;;;15.17;100.00;102186.69;5014574;28;20025;-69
2022/06/12 01:26:37;;;;;;;23.10;3.40;;;;;;;15.15;100.00;102190.16;5011377;28;20034;-69
2022/06/12 01:29:21;;;;;;;20.17;4.28;;;;;;;15.16;100.00;102184.91;5029499;28;20030;-69
2022/06/12 01:32:12;;;;;;;23.75;4.30;;;;;;;15.09;100.00;102193.59;5028725;28;20516;-69
2022/06/12 01:34:57;;;;;;;21.50;3.78;;;;;;;15.07;100.00;102197.09;5033369;28;20028;-71
2022/06/12 01:37:48;;;;;;;25.55;3.40;;;;;;;15.08;100.00;102194.47;5031724;28;20485;-69
2022/06/12 01:40:44;;;;;;;15.80;3.50;;;;;;;15.06;100.00;102195.31;5030865;28;20024;-69
2022/06/12 01:43:41;;;;;;;15.82;4.10;;;;;;;14.99;100.00;102186.34;5034856;28;20033;-70
2022/06/12 01:46:12;;;;;;;18.88;3.38;;;;;;;14.99;100.00;102191.66;5025987;28;20040;-70
2022/06/12 01:49:06;;;;;;;21.50;3.50;;;;;;;14.90;100.00;102194.13;5023611;28;20026;-70
2022/06/12 01:51:56;;;;;;;25.98;4.07;;;;;;;14.89;100.00;102195.84;5023002;28;20049;-70
2022/06/12 01:54:32;;;;;;;26.23;4.22;;;;;;;14.89;100.00;102189.66;5028476;28;20045;-69
2022/06/12 01:57:03;;;;;;;20.20;3.83;;;;;;;14.86;100.00;102194.91;5030969;28;20038;-69
2022/06/12 01:59:41;;;;;;;26.45;4.60;;;;;;;14.81;100.00;102195.72;5024337;28;20589;-69
2022/06/12 02:02:14;;;;;;;25.77;4.20;;;;;;;14.81;100.00;102189.50;5023847;28;20056;-69
2022/06/12 02:04:51;;;;;;;16.70;3.37;;;;;;;14.78;100.00;102200.94;5029386;28;20069;-70
2022/06/12 02:07:36;;;;;;;20.10;4.10;;;;;;;14.82;100.00;102189.53;5032987;28;20366;-69
2022/06/12 02:10:05;;;;;;;22.45;4.10;;;;;;;14.82;100.00;102184.22;5036584;28;20072;-70
2022/06/12 02:15:42;;;;;;;20.67;3.50;;;;;;;14.87;100.00;102186.06;5023125;28;20040;-70
2022/06/12 02:18:37;;;;;;;20.70;3.63;;;;;;;14.81;100.00;102187.75;5031747;28;20029;-70
2022/06/12 02:21:14;;;;;;;19.38;3.53;;;;;;;14.79;100.00;102183.28;5032248;28;20028;-70
2022/06/12 02:23:46;;;;;;;31.75;4.78;;;;;;;14.79;100.00;102178.88;5030428;28;20037;-70
2022/06/12 02:26:16;;;;;;;29.38;5.53;;;;;;;14.76;100.00;102181.47;5024176;28;20021;-69
2022/06/12 02:28:59;;;;;;;27.52;4.57;;;;;;;14.73;100.00;102183.16;5029466;28;20030;-69
2022/06/12 02:31:46;;;;;;;25.42;4.32;;;;;;;14.65;100.00;102183.91;5024993;28;20080;-69
2022/06/12 02:34:25;;;;;;;21.33;4.25;;;;;;;14.66;100.00;102185.69;5025943;28;20033;-70
2022/06/12 02:36:58;;;;;;;23.73;3.90;;;;;;;14.65;100.00;102175.94;5028912;28;20101;-69
2022/06/12 02:39:28;;;;;;;29.25;4.55;;;;;;;14.67;100.00;102178.63;5030509;28;20033;-70
2022/06/12 02:41:59;;;;;;;18.67;4.03;;;;;;;14.68;100.00;102188.38;5029625;28;20025;-69
2022/06/12 02:44:36;;;;;;;28.75;4.88;;;;;;;14.70;100.00;102188.38;5029850;28;20026;-70
2022/06/12 02:47:12;;;;;;;25.85;4.45;;;;;;;14.69;100.00;102186.59;5031822;28;20473;-71
2022/06/12 02:49:43;;;;;;;25.60;3.80;;;;;;;14.66;100.00;102183.03;5030360;28;20402;-69
2022/06/12 02:52:25;;;;;;;25.45;4.80;;;;;;;14.66;100.00;102182.13;5034580;28;20355;-69
2022/06/12 02:55:05;;;;;;;17.45;4.10;;;;;;;14.68;100.00;102180.41;5025248;28;20045;-69
2022/06/12 02:57:48;;;;;;;14.50;3.80;;;;;;;14.66;100.00;102183.03;5015443;28;20025;-70
2022/06/12 03:00:42;;;;;;;30.73;5.88;;;;;;;14.66;100.00;102172.44;5022751;28;20021;-69
2022/06/12 03:03:19;;;;;;;20.35;3.95;;;;;;;14.66;100.00;102182.13;5026690;28;20516;-70
2022/06/12 03:05:49;;;;;;;23.65;5.07;;;;;;;14.61;100.00;102173.16;5031989;28;20076;-69
2022/06/12 03:08:21;;;;;;;20.20;4.20;;;;;;;14.59;100.00;102174.88;5027229;28;20064;-69
2022/06/12 03:10:53;;;;;;;22.73;4.78;;;;;;;14.58;100.00;102171.34;5014940;28;20486;-69
2022/06/12 03:13:21;;;;;;;28.60;5.38;;;;;;;14.54;100.00;102177.44;5026234;28;20113;-70
2022/06/12 03:16:19;;;;;;;33.28;5.75;;;;;;;14.55;100.00;102175.69;5028829;28;20112;-70
2022/06/12 03:18:54;;;;;;;25.60;5.38;;;;;;;14.49;100.00;102171.16;5027707;28;20044;-69
2022/06/12 03:21:39;;;;;;;20.65;5.25;;;;;;;14.48;100.00;102172.88;5016383;28;20537;-70
2022/06/12 03:24:41;;;;;;;29.45;5.45;;;;;;;14.46;100.00;102182.56;5026594;28;20056;-69
2022/06/12 03:27:17;;;;;;;25.17;4.63;;;;;;;14.48;100.00;102178.19;5025846;28;20036;-69
2022/06/12 03:29:57;;;;;;;22.13;4.15;;;;;;;14.48;100.00;102178.19;5022581;28;20033;-69
2022/06/12 03:32:41;;;;;;;19.33;4.63;;;;;;;14.47;100.00;102184.38;5027741;28;20063;-70
2022/06/12 03:35:32;;;;;;;29.63;5.75;;;;;;;14.50;100.00;102180.84;5032398;28;20045;-71
2022/06/12 03:38:16;;;;;;;25.42;5.22;;;;;;;14.48;100.00;102188.78;5024198;28;20036;-69
2022/06/12 03:41:03;;;;;;;25.15;4.82;;;;;;;14.51;100.00;102193.25;5029237;28;20037;-70
2022/06/12 03:43:34;;;;;;;18.40;4.13;;;;;;;14.48;100.00;102198.50;5024440;28;20029;-71
2022/06/12 03:46:12;;;;;;;25.88;4.25;;;;;;;14.48;100.00;102191.44;5032455;28;20416;-70
2022/06/12 03:48:56;;;;;;;23.80;4.38;;;;;;;14.38;100.00;102189.44;5031375;28;20046;-69
2022/06/12 03:51:25;;;;;;;27.83;4.28;;;;;;;14.45;100.00;102183.41;5026757;28;20410;-69
2022/06/12 03:53:58;;;;;;;13.40;4.10;;;;;;;14.47;100.00;102181.72;5026655;28;20033;-71
2022/06/12 03:59:25;;;;;;;18.67;4.05;;;;;;;14.38;100.00;102192.09;5027730;28;20040;-70
2022/06/12 04:01:51;;;;;;;23.08;4.47;;;;;;;14.35;100.00;102186.72;5031890;28;20036;-69
2022/06/12 04:04:20;;;;;;;17.20;4.25;;;;;;;14.32;100.00;102191.94;5026075;28;20025;-69
2022/06/12 04:06:47;;;;;;;22.90;6.18;;;;;;;14.34;100.00;102193.78;5029591;28;20067;-69
2022/06/12 04:09:19;;;;;;;23.17;4.43;;;;;;;14.34;100.00;102195.53;5030036;28;20025;-70
2022/06/12 04:12:00;;;;;;;23.42;4.50;;;;;;;14.42;100.00;102201.91;5027839;28;20035;-70
2022/06/12 04:14:31;;;;;;;26.00;4.25;;;;;;;14.37;100.00;102195.59;5018503;28;20428;-70
2022/06/12 04:17:00;;;;;;;17.23;4.20;;;;;;;14.38;100.00;102200.03;5032172;28;20052;-70
2022/06/12 04:19:28;;;;;;;24.20;4.57;;;;;;;14.38;100.00;102193.84;5024743;28;20092;-71
2022/06/12 04:22:04;;;;;;;17.65;3.85;;;;;;;14.40;100.00;102198.31;5025868;28;20032;-70
2022/06/12 04:24:46;;;;;;;18.15;4.32;;;;;;;14.42;100.00;102198.34;5014512;28;20025;-69
2022/06/12 04:27:23;;;;;;;21.45;4.13;;;;;;;14.60;100.00;102205.81;5021933;28;20038;-70
2022/06/12 04:29:55;;;;;;;17.45;3.95;;;;;;;14.63;100.00;102197.97;5026797;28;20673;-69
2022/06/12 04:32:21;;;;;;;14.20;4.00;;;;;;;14.71;100.00;102200.78;5024379;28;20033;-70
2022/06/12 04:34:47;;;;;;;19.38;3.78;;;;;;;14.72;100.00;102200.81;5022756;28;20032;-70
2022/06/12 04:37:17;;;;;;;15.68;3.33;;;;;;;14.76;100.00;102205.31;5026505;28;20029;-69
2022/06/12 04:39:43;;;;;;;22.77;4.75;;;;;;;14.78;100.00;102202.69;5029065;28;20025;-69
2022/06/12 04:42:12;;;;;;;24.00;4.05;;;;;;;14.81;100.00;102208.06;5030080;28;20105;-70
2022/06/12 04:44:38;;;;;;;16.27;4.03;;;;;;;14.90;100.00;102212.66;5027972;28;20027;-70
2022/06/12 04:47:05;;;;;;;12.27;3.55;;;;;;;14.92;100.00;102211.84;5030842;28;20497;-70
2022/06/12 04:49:33;;;;;;;21.35;3.75;;;;;;;14.98;100.00;102213.72;5023308;28;20037;-70
2022/06/12 04:52:00;;;;;;;15.68;4.05;;;;;;;15.03;100.00;102219.09;5029880;28;20068;-70
2022/06/12 04:54:27;;;;;;;18.08;4.03;;;;;;;15.09;100.00;102216.59;5030940;28;20030;-69
2022/06/12 04:56:52;;;;;;;14.65;2.85;;;;;;;15.16;100.00;102211.41;5029782;28;20065;-70
2022/06/12 04:59:19;;;;;;;18.50;3.63;;;;;;;15.21;100.00;102202.69;5029603;28;20111;-69
2022/06/12 05:01:46;;;;;;;14.90;3.25;;;;;;;15.29;100.00;102206.38;5023328;28;20033;-69
2022/06/12 05:04:12;;;;;;;15.30;3.13;;;;;;;15.38;100.00;102203.84;5015674;28;20038;-69
2022/06/12 05:06:39;;;;;;;20.50;3.90;;;;;;;15.45;100.00;102202.22;5012916;28;20030;-70
2022/06/12 05:09:06;;;;;;;14.07;3.75;;;;;;;15.49;100.00;102204.97;5029752;28;20033;-70
2022/06/12 05:11:32;;;;;;;11.30;2.55;;;;;;;15.52;100.00;102205.03;5027223;28;20029;-69
2022/06/12 05:13:57;;;;;;;17.60;2.92;;;;;;;15.55;100.00;102205.97;5017739;28;20022;-70
2022/06/12 05:16:39;;;;;;;12.60;2.88;;;;;;;15.60;100.00;102215.78;5022623;28;20791;-70
2022/06/12 05:19:07;;;;;;;13.98;3.00;;;;;;;15.65;100.00;102211.44;5028787;28;20054;-69
2022/06/12 05:21:33;;;;;;;20.75;3.05;;;;;;;15.72;100.00;102215.09;5025648;28;20021;-70
2022/06/12 05:24:00;;;;;;;16.83;3.22;;;;;;;15.71;100.00;102212.41;5031728;28;20113;-70
2022/06/12 05:26:26;;;;;;;8.30;3.05;;;;;;;15.72;100.00;102217.75;5022710;28;20017;-70
2022/06/12 05:28:53;;;;;;;8.60;2.13;;;;;;;15.78;100.00;102206.34;5021031;28;20539;-71
2022/06/12 05:31:18;;;;;;;12.05;2.85;;;;;;;15.80;100.00;102216.16;5025367;28;20057;-69
2022/06/12 05:33:45;;;;;;;8.60;2.75;;;;;;;15.75;100.00;102212.50;5028211;28;20477;-70
2022/06/12 05:36:13;;;;;;;13.30;3.00;;;;;;;15.78;100.00;102219.63;5026124;28;20057;-70
2022/06/12 05:38:40;;;;;;;9.73;2.35;;;;;;;15.77;100.00;102218.72;5018605;28;20080;-71
2022/06/12 05:41:06;;;;;;;8.90;2.72;;;;;;;15.77;100.00;102213.41;5026066;28;20034;-69
2022/06/12 05:43:31;;;;;;;14.93;2.83;;;;;;;15.87;100.00;102221.56;5030623;28;20036;-70
2022/06/12 05:45:56;;;;;;;12.38;2.90;;;;;;;15.90;100.00;102221.59;5021868;28;20163;-70
2022/06/12 05:48:23;;;;;;;10.55;2.45;;;;;;;15.93;100.00;102227.88;5022269;28;20492;-69
2022/06/12 05:50:58;;;;;;;12.60;3.00;;;;;;;15.97;100.00;102228.81;5025522;28;20121;-70
2022/06/12 05:53:25;;;;;;;14.95;2.50;;;;;;;16.02;100.00;102237.75;5027028;28;20048;-70
2022/06/12 05:55:52;;;;;;;10.15;2.70;;;;;;;16.03;100.00;102234.22;5023252;28;20026;-68
2022/06/12 05:58:20;;;;;;;15.75;2.85;;;;;;;16.10;100.00;102240.53;5027165;28;20041;-68
2022/06/12 06:00:46;;;;;;;9.75;2.28;;;;;;;16.10;100.00;102235.22;5026049;28;20025;-70
2022/06/12 06:03:12;;;;;;;8.90;2.58;;;;;;;16.04;100.00;102229.81;5033841;28;20116;-70
2022/06/12 06:05:40;;;;;;;12.05;2.35;;;;;;;16.08;100.00;102237.84;5029822;28;20112;-70
2022/06/12 06:08:06;;;;;;;11.10;2.58;;;;;;;16.12;100.00;102233.47;5031549;28;20025;-69
2022/06/12 06:10:32;;;;;;;8.50;2.40;;;;;;;16.11;100.00;102237.88;5034181;28;20048;-70
2022/06/12 06:12:57;;;;;;;11.60;2.50;;;;;;;16.13;100.00;102236.16;5022268;28;20478;-70
2022/06/12 06:15:24;;;;;;;14.13;2.80;;;;;;;16.14;100.00;102237.97;5033735;28;20027;-70
2022/06/12 06:17:50;;;;;;;8.63;2.55;;;;;;;16.22;100.00;102242.47;5030263;28;20481;-70
2022/06/12 06:20:21;;;;;;;15.55;3.20;;;;;;;16.20;100.00;102245.13;5020337;28;20547;-69
2022/06/12 06:22:47;;;;;;;13.13;3.42;;;;;;;16.28;100.00;102246.13;5030185;28;20083;-70
2022/06/12 06:25:12;;;;;;;12.88;2.60;;;;;;;16.35;100.00;102247.13;5028623;28;20465;-70
2022/06/12 06:27:38;;;;;;;11.57;2.83;;;;;;;16.41;100.00;102247.19;5026002;28;20534;-70
2022/06/12 06:30:04;;;;;;;17.42;3.35;;;;;;;16.44;100.00;102244.59;5032668;28;20021;-71
2022/06/12 06:32:32;;;;;;;12.73;2.83;;;;;;;16.41;100.00;102247.19;5027338;28;20405;-70
2022/06/12 06:34:58;;;;;;;13.25;2.58;;;;;;;16.37;100.00;102253.34;5025159;28;20032;-70
2022/06/12 06:37:23;;;;;;;10.13;3.25;;;;;;;16.32;100.00;102261.25;5025778;28;20033;-69
2022/06/12 06:39:48;;;;;;;9.23;2.63;;;;;;;16.33;100.00;102254.16;5023859;28;20022;-69
2022/06/12 06:42:14;;;;;;;12.50;3.25;;;;;;;16.35;100.00;102263.06;5020937;28;20025;-68
2022/06/12 06:47:24;;;;;;;10.18;2.13;;;;;;;16.35;100.00;102273.69;5022395;28;20389;-69
2022/06/12 06:49:49;;;;;;;12.15;2.63;;;;;;;16.39;100.00;102283.50;5028929;28;20025;-68
2022/06/12 06:52:15;;;;;;;12.55;3.25;;;;;;;16.47;100.00;102286.28;5022036;28;20021;-67
2022/06/12 06:54:41;;;;;;;9.65;2.60;;;;;;;16.50;100.00;102287.19;5026063;28;20034;-68
2022/06/12 06:57:08;;;;;;;10.82;3.03;;;;;;;16.64;100.00;102283.84;5017630;28;20103;-68
2022/06/12 06:59:35;;;;;;;10.57;2.72;;;;;;;16.66;100.00;102280.34;5024309;28;20026;-69
2022/06/12 07:02:00;;;;;;;12.27;2.38;;;;;;;16.69;100.00;102287.47;5025304;28;20113;-68
2022/06/12 07:04:25;;;;;;;9.00;2.42;;;;;;;16.61;100.00;102279.38;5027522;28;20073;-68
2022/06/12 07:06:51;;;;;;;12.57;2.97;;;;;;;16.67;100.00;102286.53;5026517;28;20022;-69
2022/06/12 07:09:16;;;;;;;10.70;2.58;;;;;;;16.73;100.00;102286.66;5031428;28;20397;-69
2022/06/12 07:11:42;;;;;;;12.40;2.42;;;;;;;16.74;100.00;102283.13;5027769;28;20115;-68
2022/06/12 07:14:07;;;;;;;12.20;2.70;;;;;;;16.82;100.00;102286.78;5028903;28;20136;-69
2022/06/12 07:16:34;;;;;;;7.63;2.30;;;;;;;16.76;100.00;102276.03;5029739;28;20034;-69
2022/06/12 07:19:00;;;;;;;10.30;2.42;;;;;;;16.86;100.00;102288.59;5028666;28;20102;-69
2022/06/12 07:21:25;;;;;;;15.98;2.90;;;;;;;16.90;100.00;102278.94;5032131;28;20080;-69
2022/06/12 07:23:50;;;;;;;9.07;2.90;;;;;;;16.97;100.00;102279.91;5031683;28;20048;-68
2022/06/12 07:26:23;;;;;;;12.15;2.78;;;;;;;16.98;100.00;102274.63;5022399;28;20127;-69
2022/06/12 07:28:49;;;;;;;17.60;2.77;;;;;;;17.07;100.00;102273.84;5025768;28;20032;-69
2022/06/12 07:31:15;;;;;;;9.02;2.65;;;;;;;17.14;100.00;102277.47;5024906;28;20022;-71
2022/06/12 07:33:41;;;;;;;10.55;2.53;;;;;;;17.17;100.00;102273.09;5028086;28;20025;-70
2022/06/12 07:36:08;;;;;;;12.27;2.45;;;;;;;17.30;100.00;102279.44;5028853;28;20477;-70
2022/06/12 07:38:35;;;;;;;10.23;2.40;;;;;;;17.46;100.00;102275.19;5027849;28;20037;-70
2022/06/12 07:41:03;;;;;;;13.50;2.90;;;;;;;17.55;100.00;102278.81;5028228;28;20029;-70
2022/06/12 07:43:33;;;;;;;13.05;2.92;;;;;;;17.64;100.00;102281.56;5025312;28;20522;-71
2022/06/12 07:45:58;;;;;;;11.45;2.83;;;;;;;17.67;100.00;102274.50;5024022;28;20044;-70
2022/06/12 07:48:24;;;;;;;13.52;2.42;;;;;;;17.65;100.00;102286.03;5029992;28;20029;-69
2022/06/12 07:50:52;;;;;;;15.73;2.72;;;;;;;17.62;100.00;102275.34;5031566;28;20128;-70
2022/06/12 07:53:19;;;;;;;7.57;2.30;;;;;;;17.55;100.00;102278.81;5025608;28;20485;-71
2022/06/12 07:55:45;;;;;;;8.98;2.17;;;;;;;17.43;100.00;102277.81;5022752;28;20025;-69
2022/06/12 07:58:10;;;;;;;10.63;2.72;;;;;;;17.55;100.00;102282.34;5024562;28;20025;-70
2022/06/12 08:00:37;;;;;;;10.25;2.45;;;;;;;17.65;100.00;102291.34;5033190;28;20025;-69
2022/06/12 08:03:05;;;;;;;6.53;2.42;;;;;;;17.68;100.00;102291.38;5016636;28;20128;-71
2022/06/12 08:05:32;;;;;;;18.98;2.65;;;;;;;17.75;100.00;102287.00;5031753;28;20037;-71
2022/06/12 08:07:57;;;;;;;11.30;2.50;;;;;;;17.81;100.00;102287.97;5030557;28;20032;-70
2022/06/12 08:10:23;;;;;;;15.15;3.40;;;;;;;17.76;100.00;102287.03;5021724;28;20034;-70
2022/06/12 08:12:49;;;;;;;9.18;2.45;;;;;;;17.96;100.00;102283.69;5020231;28;20075;-70
2022/06/12 08:15:20;;;;;;;9.90;2.45;;;;;;;18.02;100.00;102281.97;5020592;28;20469;-69
2022/06/12 08:17:45;;;;;;;12.57;2.20;;;;;;;17.98;100.00;102296.13;5025730;28;20057;-69
2022/06/12 08:20:24;;;;;;;7.90;2.15;;;;;;;17.94;99.92;102289.00;5026570;28;20477;-70
2022/06/12 08:22:54;;;;;;;14.57;2.40;;;;;;;18.07;100.00;102294.44;5022196;28;20035;-70
2022/06/12 08:25:20;;;;;;;8.20;2.35;;;;;;;18.12;100.00;102293.63;5039087;28;20025;-69
2022/06/12 08:27:46;;;;;;;9.07;2.10;;;;;;;18.20;100.00;102293.66;5030624;28;20033;-69
2022/06/12 08:30:12;;;;;;;14.13;2.78;;;;;;;18.38;100.00;102290.25;5027202;28;20517;-70
2022/06/12 08:32:37;;;;;;;12.48;2.45;;;;;;;18.37;98.32;102294.69;5029883;28;20026;-69
2022/06/12 08:35:11;;;;;;;12.98;2.42;;;;;;;18.46;98.67;102298.28;5031380;28;20112;-71
2022/06/12 08:37:38;;;;;;;11.40;2.78;;;;;;;18.60;98.19;102290.38;5023015;28;20037;-70
2022/06/12 08:40:12;;;;;;;11.70;2.60;;;;;;;18.71;99.58;102294.03;5022370;28;20444;-70
2022/06/12 08:42:51;;;;;;;12.80;3.10;;;;;;;18.58;99.07;102293.03;5030186;28;20033;-68
2022/06/12 08:45:21;;;;;;;12.02;3.10;;;;;;;18.36;100.00;102286.69;5029559;28;20040;-67
2022/06/12 08:48:08;;;;;;;10.98;2.45;;;;;;;18.43;98.16;102285.81;5030592;28;20481;-68
2022/06/12 08:50:53;;;;;;;12.13;3.08;;;;;;;18.37;98.96;102285.81;5028509;28;20141;-69
2022/06/12 08:53:47;;;;;;;8.15;2.30;;;;;;;18.59;96.17;102281.50;5027872;28;20037;-68
2022/06/12 08:56:24;;;;;;;9.35;2.60;;;;;;;18.54;95.06;102269.91;5024437;28;20175;-69
2022/06/12 08:59:00;;;;;;;13.30;2.20;;;;;;;18.46;92.26;102272.53;5029864;28;20030;-68
2022/06/12 09:01:25;;;;;;;12.50;2.33;;;;;;;18.45;93.71;102265.44;5021892;28;20036;-68
2022/06/12 09:03:54;;;;;;;6.57;2.20;;;;;;;18.49;94.99;102259.22;5029594;28;20033;-70
2022/06/12 09:06:30;;;;;;;13.60;2.22;;;;;;;18.65;91.34;102259.31;5028982;28;20056;-69
2022/06/12 09:08:58;;;;;;;8.45;2.13;;;;;;;18.64;90.85;102263.75;5022476;28;20040;-70
2022/06/12 09:11:30;;;;;;;7.95;2.08;;;;;;;18.53;88.10;102271.69;5031085;28;20032;-68
2022/06/12 09:14:24;;;;;;;6.68;2.08;;;;;;;18.44;82.47;102273.41;5029079;28;20086;-69
2022/06/12 09:17:28;;;;;;;15.27;2.78;;;;;;;18.43;83.26;102277.84;5029373;28;20184;-70
2022/06/12 09:20:14;;;;;;;10.02;2.30;;;;;;;18.62;83.52;102273.50;5025344;28;20045;-70
2022/06/12 09:22:57;;;;;;;8.32;2.42;;;;;;;18.86;81.89;102282.53;5028229;28;20034;-69
2022/06/12 09:25:38;;;;;;;;;;;;;;;18.95;79.38;102276.38;5026735;28;20053;-70
2022/06/12 09:28:17;;;;;;;9.60;2.35;;;;;;;18.84;78.61;102270.97;5030198;28;20360;-70
2022/06/12 09:31:12;;;;;;;7.80;2.08;;;;;;;18.69;77.73;102280.69;5026706;28;20470;-70
2022/06/12 09:34:18;;;;;;;8.25;3.47;;;;;;;18.71;76.58;102281.56;5021266;28;20057;-70
2022/06/12 09:36:56;;;;;;;9.48;2.22;;;;;;;18.87;76.65;102276.34;5026717;28;20119;-70
2022/06/12 09:39:42;;;;;;;4.45;1.50;;;;;;;18.98;69.61;102279.09;5036863;28;20037;-69
2022/06/12 09:42:19;;;;;;;5.72;1.48;;;;;;;18.92;71.75;102276.38;5024822;28;20044;-69
2022/06/12 09:44:53;;;;;;;8.95;2.08;;;;;;;18.87;72.29;102281.66;5031899;28;20025;-68
2022/06/12 09:47:24;;;;;;;;;;;;;;;18.78;73.25;102271.84;5026584;28;20071;-68
2022/06/12 09:50:04;;;;;;;9.93;2.20;;;;;;;19.03;76.24;102283.56;5033213;28;20007;-70
2022/06/12 09:53:03;;;;;;;9.85;2.58;;;;;;;19.06;78.05;102273.75;5049659;28;20071;-70
2022/06/12 09:55:46;;;;;;;8.57;1.88;;;;;;;19.34;77.91;102281.00;5032701;28;20444;-70
2022/06/12 09:58:33;;;;;;;7.28;1.85;;;;;;;19.61;76.12;102279.28;5028794;28;20086;-69
2022/06/12 10:01:13;;;;;;;11.70;2.55;;;;;;;19.63;73.77;102287.28;5035407;28;20025;-70
2022/06/12 10:03:50;;;;;;;12.52;1.85;;;;;;;19.72;69.57;102279.28;5037982;28;20025;-70
2022/06/12 10:06:36;;;;;;;9.25;2.15;;;;;;;19.44;69.28;102292.59;5034207;28;20031;-69
2022/06/12 10:09:12;;;;;;;7.63;1.88;;;;;;;19.50;69.77;102281.03;5038256;28;20017;-70
2022/06/12 10:11:45;;;;;;;12.10;3.33;;;;;;;19.70;71.16;102283.75;5029196;28;20030;-69
2022/06/12 10:14:10;;;;;;;;;;;;;;;19.70;69.83;102283.75;5030028;28;20035;-69
2022/06/12 10:16:56;;;;;;;11.40;2.50;;;;;;;19.81;68.94;102284.69;5036888;28;20435;-70
2022/06/12 10:19:40;;;;;;;10.25;1.90;;;;;;;19.63;66.89;102282.84;5034181;28;20473;-69
2022/06/12 10:22:13;;;;;;;9.25;2.33;;;;;;;19.66;69.66;102282.84;5034205;28;20196;-71
2022/06/12 10:24:38;;;;;;;9.70;1.70;;;;;;;19.62;67.87;102285.53;5025516;28;20039;-69
2022/06/12 10:27:09;;;;;;;5.57;1.92;;;;;;;19.38;63.95;102288.13;5026046;28;20100;-69
2022/06/12 10:30:00;;;;;;;9.32;2.10;;;;;;;19.24;65.87;102284.53;5032493;28;20120;-69
2022/06/12 10:32:46;;;;;;;6.38;1.75;;;;;;;19.57;65.35;102277.47;5030007;28;20025;-69
2022/06/12 10:35:17;;;;;;;6.18;1.83;;;;;;;19.51;64.83;102275.69;5021902;28;20034;-70
2022/06/12 10:37:43;;;;;;;10.63;2.15;;;;;;;19.54;67.12;102278.38;5029127;28;20029;-70
2022/06/12 10:40:23;;;;;;;10.27;2.20;;;;;;;19.49;66.03;102280.16;5023873;28;20033;-70
2022/06/12 10:43:00;;;;;;;5.80;2.17;;;;;;;19.47;65.97;102289.94;5029854;28;20069;-68
2022/06/12 10:45:29;;;;;;;8.65;1.85;;;;;;;19.49;65.02;102279.25;5028806;28;20112;-70
2022/06/12 10:47:57;;;;;;;6.45;1.77;;;;;;;19.74;64.61;102280.19;5026772;28;20021;-70
2022/06/12 10:50:37;;;;;;;8.25;1.63;;;;;;;19.79;66.15;102270.41;5031747;28;20057;-69
2022/06/12 10:53:14;;;;;;;13.63;2.35;;;;;;;20.02;65.53;102274.91;5029586;28;20076;-71
2022/06/12 10:55:57;;;;;;;12.55;3.38;;;;;;;20.00;64.28;102277.56;5032318;28;20029;-70
2022/06/12 10:59:04;;;;;;;20.30;2.80;;;;;;;19.86;66.51;102279.38;5040084;28;20074;-69
2022/06/12 11:01:43;;;;;;;10.85;2.78;;;;;;;19.88;66.36;102282.91;5033345;28;20018;-68
2022/06/12 11:04:18;;;;;;;9.00;2.22;;;;;;;20.08;65.79;102285.59;5027774;28;20040;-69
2022/06/12 11:07:18;;;;;;;15.55;2.28;;;;;;;20.29;64.50;102275.78;5029434;28;20026;-69
2022/06/12 11:09:52;;;;;;;16.63;2.63;;;;;;;20.42;64.70;102290.91;5017815;28;20048;-69
2022/06/12 11:12:27;;;;;;;12.23;2.70;;;;;;;20.58;63.94;102280.19;5034051;28;20067;-70
2022/06/12 11:15:07;;;;;;;14.48;3.03;;;;;;;20.55;62.31;102273.97;5032864;28;20033;-70
2022/06/12 11:17:41;;;;;;;9.95;2.47;;;;;;;20.52;65.08;102282.00;5033715;28;20031;-71
2022/06/12 11:20:20;;;;;;;;;;;;;;;20.66;65.63;102278.38;5032104;28;20079;-71
2022/06/12 11:23:05;;;;;;;8.43;1.88;;;;;;;20.82;62.61;102274.81;5032621;28;19982;-69
2022/06/12 11:25:50;;;;;;;6.93;2.03;;;;;;;20.64;62.50;102267.69;5034084;28;20052;-70
2022/06/12 11:28:46;;;;;;;10.57;2.13;;;;;;;20.59;60.38;102265.94;5026607;28;20520;-70
2022/06/12 11:31:53;;;;;;;4.10;1.70;;;;;;;20.71;58.40;102271.28;5032843;28;20041;-71
2022/06/12 11:34:21;;;;;;;7.25;1.90;;;;;;;20.72;58.91;102268.59;4998574;28;20041;-72
2022/06/12 11:36:56;;;;;;;14.55;2.00;;;;;;;20.94;59.95;102268.53;5033956;28;20397;-72
2022/06/12 11:39:44;;;;;;;5.97;1.63;;;;;;;20.96;59.62;102276.53;5034025;28;20503;-72
2022/06/12 11:42:23;;;;;;;11.02;2.25;;;;;;;20.94;59.36;102264.97;5020128;28;20037;-71
2022/06/12 11:44:55;;;;;;;8.80;2.05;;;;;;;21.01;56.99;102261.34;5034203;28;20053;-70
2022/06/12 11:47:27;;;;;;;9.38;2.20;;;;;;;21.07;59.05;102256.00;5033316;28;20021;-69
2022/06/12 11:50:11;;;;;;;5.28;1.85;;;;;;;21.53;59.58;102263.78;5030530;28;20037;-72
2022/06/12 11:53:08;;;;;;;8.70;2.20;;;;;;;21.63;57.70;102253.03;5025617;28;20512;-71
2022/06/12 11:55:38;;;;;;;12.43;2.05;;;;;;;21.68;58.42;102252.09;5004658;28;20053;-72
2022/06/12 11:58:41;;;;;;;7.35;1.88;;;;;;;21.98;58.17;102254.53;5023207;28;20037;-71